Weather at St-Remi-D'Amherst / Kanata Tremblant Resort Heliport

Public forecast

Using degrees Celsius for public forecast. Weather courtesy of forecast.io.

Closest aviation weather report (METAR) to St-Remi-D'Amherst / Kanata Tremblant Resort Heliport

Closest report is Montreal International (Mirabel) Airport, 35.2 nm (65.1 km) ESE.

2024/05/30 05:00 (retrieved 35 minutes ago)

CYMX 300500Z 35007KT 25SM SKC 11/04 A2999 RMK SLP160

Closest aviation forecast (TAF) to St-Remi-D'Amherst / Kanata Tremblant Resort Heliport

Forecast is more than 6 hours old.

Closest forecast is Ottawa / Gatineau Airport, 44.3 nm (82.0 km) SW.

2024/05/29 18:00 (retrieved 12 hours ago)

TAF CYND 291740Z 2918/3001 32012KT P6SM FEW040 BKN240 RMK NXT FCST BY 301300Z